createdAt,value
2018-06-04T00:02:54.133Z,74.9
2018-06-04T00:07:54.113Z,75.5
2018-06-04T00:12:54.298Z,75.4
2018-06-04T00:17:54.345Z,76.9
2018-06-04T00:22:54.118Z,76.5
2018-06-04T00:27:54.248Z,77.2
2018-06-04T00:32:55.001Z,77
2018-06-04T00:37:54.890Z,76.8
2018-06-04T00:43:07.274Z,76.5
2018-06-04T00:48:07.136Z,76.4
2018-06-04T00:53:07.176Z,77
2018-06-04T00:58:07.222Z,77.3
2018-06-04T01:03:07.134Z,77.8
2018-06-04T01:08:07.013Z,78.5
2018-06-04T01:13:07.212Z,79.1
2018-06-04T01:18:09.275Z,78.1
2018-06-04T01:23:09.012Z,78.5
2018-06-04T01:28:21.408Z,79.9
2018-06-04T01:33:21.141Z,79.7
2018-06-04T01:38:21.299Z,79.1
2018-06-04T01:43:21.141Z,78.9
2018-06-04T01:48:21.375Z,79.4
2018-06-04T01:53:21.297Z,79
2018-06-04T01:58:21.155Z,80
2018-06-04T02:03:22.297Z,79.3
2018-06-04T02:08:22.084Z,79.1
2018-06-04T02:13:34.750Z,79.6
2018-06-04T02:18:34.420Z,79.6
2018-06-04T02:23:34.603Z,80.1
2018-06-04T02:28:34.625Z,80.8
2018-06-04T02:33:34.422Z,81.1
2018-06-04T02:38:34.615Z,81.2
2018-06-04T02:43:34.651Z,80.8
2018-06-04T02:48:37.612Z,81.2
2018-06-04T02:53:37.485Z,81
2018-06-04T02:58:50.086Z,81.5
2018-06-04T03:03:49.936Z,81.7
2018-06-04T03:08:49.979Z,82.6
2018-06-04T03:13:50.016Z,83
2018-06-04T03:18:49.776Z,82
2018-06-04T03:23:49.978Z,82.5
2018-06-04T03:28:49.856Z,83.4
2018-06-04T03:33:50.019Z,82.5
2018-06-04T03:38:50.056Z,83.2
2018-06-04T03:44:01.849Z,82.4
2018-06-04T03:49:01.693Z,81.7
2018-06-04T03:54:01.621Z,82
2018-06-04T03:59:01.754Z,80.6
2018-06-04T04:04:01.736Z,81.9
2018-06-04T04:09:01.745Z,80
2018-06-04T04:14:01.616Z,79
2018-06-04T04:19:01.815Z,77.4
2018-06-04T04:24:02.077Z,77
2018-06-04T04:29:16.758Z,76.3
2018-06-04T04:34:16.681Z,78.4
2018-06-04T04:39:16.478Z,76.8
2018-06-04T04:44:16.652Z,76.9
2018-06-04T04:49:16.680Z,76.7
2018-06-04T04:54:16.706Z,75.2
2018-06-04T04:59:16.665Z,74.4
2018-06-04T05:04:18.832Z,72.3
2018-06-04T05:09:18.705Z,73.7
2018-06-04T05:14:29.064Z,73.4
2018-06-04T05:19:28.978Z,70.3
2018-06-04T05:24:28.872Z,70.1
2018-06-04T05:29:28.910Z,69.4
2018-06-04T05:34:28.967Z,68.5
2018-06-04T05:39:28.787Z,68.2
2018-06-04T05:44:29.585Z,68
2018-06-04T05:49:30.233Z,66.4
2018-06-04T05:54:33.099Z,66.2
2018-06-04T05:59:42.249Z,63.9
2018-06-04T06:04:42.009Z,63.6
2018-06-04T06:09:42.227Z,63.8
2018-06-04T06:14:42.136Z,63.1
2018-06-04T06:19:42.002Z,62.2
2018-06-04T06:24:42.211Z,61.8
2018-06-04T06:29:41.981Z,60.3
2018-06-04T06:34:44.738Z,58.8
2018-06-04T06:39:44.574Z,59.3
2018-06-04T06:44:54.220Z,58.7
2018-06-04T06:49:53.920Z,57.7
2018-06-04T06:54:54.144Z,57.8
2018-06-04T06:59:53.949Z,56.3
2018-06-04T07:04:54.152Z,56.3
2018-06-04T07:09:53.941Z,55.5
2018-06-04T07:14:53.964Z,55.6
2018-06-04T07:19:54.253Z,55.2
2018-06-04T07:24:54.169Z,54.9
2018-06-04T07:30:06.436Z,54.1
2018-06-04T07:35:06.373Z,54.9
2018-06-04T07:40:06.364Z,53.4
2018-06-04T07:45:06.600Z,53.5
2018-06-04T07:50:06.392Z,53.3
2018-06-04T07:55:06.475Z,52.3
2018-06-04T08:00:06.443Z,52
2018-06-04T08:05:07.472Z,53.7
2018-06-04T08:10:07.630Z,51.2
2018-06-04T08:15:19.947Z,51.4
2018-06-04T08:20:19.834Z,51.4
2018-06-04T08:25:19.887Z,50.6
2018-06-04T08:30:19.721Z,49.9
2018-06-04T08:35:19.839Z,48.6
2018-06-04T08:40:19.922Z,49.4
2018-06-04T08:45:19.830Z,48.5
2018-06-04T08:50:23.130Z,49.1
2018-06-04T08:55:23.056Z,49.1
2018-06-04T09:00:35.581Z,48.6
2018-06-04T09:05:35.515Z,49
2018-06-04T09:10:35.437Z,48.4
2018-06-04T09:15:35.474Z,46.6
2018-06-04T09:20:35.480Z,47.8
2018-06-04T09:25:35.550Z,48
2018-06-04T09:30:35.484Z,46.6
2018-06-04T09:35:35.831Z,46.4
2018-06-04T09:40:35.757Z,44.7
2018-06-04T09:45:48.613Z,44.4
2018-06-04T09:50:48.483Z,44.7
2018-06-04T09:55:48.484Z,44.2
2018-06-04T10:00:48.655Z,42.3
2018-06-04T10:05:48.451Z,42.5
2018-06-04T10:10:48.441Z,42.8
2018-06-04T10:15:48.472Z,41.6
2018-06-04T10:20:49.591Z,41.8
2018-06-04T10:25:49.496Z,40.4
2018-06-04T10:31:02.246Z,42
2018-06-04T10:36:02.140Z,40
2018-06-04T10:41:01.968Z,37.7
2018-06-04T10:46:02.218Z,39.5
2018-06-04T10:51:01.986Z,39.6
2018-06-04T10:56:05.309Z,38.7
2018-06-04T11:01:05.486Z,37.8
2018-06-04T11:06:05.327Z,38.3
2018-06-04T11:11:05.331Z,39.1
2018-06-04T11:16:17.049Z,37.8
2018-06-04T11:21:16.981Z,37.4
2018-06-04T11:26:17.013Z,37.1
2018-06-04T11:31:16.935Z,37
2018-06-04T11:36:17.015Z,35.8
2018-06-04T11:41:16.817Z,36.7
2018-06-04T11:46:18.866Z,36.8
2018-06-04T11:51:16.806Z,36.8
2018-06-04T11:56:17.021Z,35.8
2018-06-04T12:01:16.958Z,35.9
2018-06-04T12:06:16.813Z,36
2018-06-04T12:11:16.814Z,35.9
2018-06-04T12:16:17.169Z,36.9
2018-06-04T12:21:17.094Z,37.1
2018-06-04T12:26:29.712Z,36.5
2018-06-04T12:31:29.655Z,37.2
2018-06-04T12:36:29.443Z,36.2
2018-06-04T12:41:29.615Z,36.6
2018-06-04T12:46:29.456Z,36.8
2018-06-04T12:51:29.696Z,35.1
2018-06-04T12:56:29.594Z,35.6
2018-06-04T13:01:30.621Z,32.9
2018-06-04T13:06:30.343Z,33.2
2018-06-04T13:11:43.128Z,33.6
2018-06-04T13:16:43.061Z,34.6
2018-06-04T13:21:42.955Z,33.8
2018-06-04T13:26:43.071Z,34
2018-06-04T13:31:43.051Z,32.6
2018-06-04T13:36:43.088Z,32.2
2018-06-04T13:41:43.036Z,31.3
2018-06-04T13:46:44.262Z,30.9
2018-06-04T13:51:44.106Z,30.1
2018-06-04T13:56:56.878Z,31.9
2018-06-04T14:01:56.614Z,31.5
2018-06-04T14:06:56.841Z,31.2
2018-06-04T14:11:56.752Z,30.8
2018-06-04T14:16:56.784Z,31.7
2018-06-04T14:21:56.728Z,29.9
2018-06-04T14:26:56.606Z,30.3
2018-06-04T14:31:57.409Z,30.3
2018-06-04T14:36:57.140Z,31
2018-06-04T14:42:09.720Z,31.7
2018-06-04T14:47:09.442Z,31.8
2018-06-04T14:52:09.458Z,30.3
2018-06-04T14:57:10.036Z,31.3
2018-06-04T15:02:09.459Z,31.1
2018-06-04T15:07:09.508Z,34.2
2018-06-04T15:12:09.496Z,36.3
2018-06-04T15:17:09.470Z,36.9
2018-06-04T15:22:09.618Z,37.4
2018-06-04T15:27:21.516Z,38.8
2018-06-04T15:32:21.334Z,38.5
2018-06-04T15:37:21.265Z,38.5
2018-06-04T15:42:21.429Z,38.7
2018-06-04T15:47:21.255Z,38.6
2018-06-04T15:52:21.265Z,39.4
2018-06-04T15:57:21.423Z,39.3
2018-06-04T16:02:21.469Z,40.3
2018-06-04T16:07:21.429Z,39.6
2018-06-04T16:12:21.283Z,40.4
2018-06-04T16:17:21.219Z,40.5
2018-06-04T16:22:21.280Z,41
2018-06-04T16:27:21.288Z,39.8
2018-06-04T16:32:21.282Z,40.6
2018-06-04T16:37:33.966Z,39.2
2018-06-04T16:42:33.526Z,40.5
2018-06-04T16:47:33.327Z,40.9
2018-06-04T16:52:33.352Z,39.4
2018-06-04T16:57:33.319Z,40.6
2018-06-04T17:02:33.567Z,40.4
2018-06-04T17:07:33.745Z,40.7
2018-06-04T17:12:34.407Z,40.2
2018-06-04T17:17:34.100Z,40.2
2018-06-04T17:22:46.797Z,40.7
2018-06-04T17:27:46.726Z,40.9
2018-06-04T17:32:46.772Z,41.6
2018-06-04T17:37:46.521Z,39.6
2018-06-04T17:42:46.528Z,41.8
2018-06-04T17:47:46.772Z,41.1
2018-06-04T17:52:46.565Z,41.1
2018-06-04T17:57:49.980Z,41.5
2018-06-04T18:02:49.683Z,41.9
2018-06-04T18:08:00.347Z,42.5
2018-06-04T18:12:59.626Z,43.6
2018-06-04T18:17:59.618Z,43.9
2018-06-04T18:22:59.593Z,44.9
2018-06-04T18:27:59.751Z,45.2
2018-06-04T18:33:00.007Z,46.3
2018-06-04T18:37:59.884Z,46.7
2018-06-04T18:43:01.926Z,46.7
2018-06-04T18:48:01.549Z,47
2018-06-04T18:53:13.804Z,48.3
2018-06-04T18:58:13.527Z,48.4
2018-06-04T19:03:13.521Z,48.4
2018-06-04T19:08:13.573Z,48.8
2018-06-04T19:13:13.528Z,49.2
2018-06-04T19:18:13.518Z,49.7
2018-06-04T19:23:13.546Z,49.9
2018-06-04T19:28:13.575Z,50.1
2018-06-04T19:33:13.564Z,50.9
2018-06-04T19:38:25.935Z,51
2018-06-04T19:43:25.098Z,52.1
2018-06-04T19:48:25.399Z,52.5
2018-06-04T19:53:25.090Z,53.7
2018-06-04T19:58:25.163Z,54
2018-06-04T20:03:25.167Z,55.2
2018-06-04T20:08:25.397Z,55.4
2018-06-04T20:13:27.538Z,55.6
2018-06-04T20:18:27.422Z,55.3
2018-06-04T20:23:40.139Z,56.7
2018-06-04T20:28:40.088Z,57.1
2018-06-04T20:33:40.068Z,57.5
2018-06-04T20:38:40.179Z,58.1
2018-06-04T20:43:40.126Z,58.7
2018-06-04T20:48:40.383Z,58.8
2018-06-04T20:53:40.121Z,59.6
2018-06-04T20:58:40.458Z,59.3
2018-06-04T21:03:40.129Z,61.1
2018-06-04T21:08:52.443Z,60.7
2018-06-04T21:13:52.149Z,63.3
2018-06-04T21:18:52.281Z,64.2
2018-06-04T21:23:52.061Z,63.2
2018-06-04T21:28:52.284Z,63.6
2018-06-04T21:33:52.083Z,64.5
2018-06-04T21:38:52.227Z,63.3
2018-06-04T21:43:52.061Z,64.7
2018-06-04T21:48:52.106Z,65.9
2018-06-04T21:53:52.222Z,66.7
2018-06-04T21:58:52.259Z,66.2
2018-06-04T22:03:52.066Z,66.3
2018-06-04T22:08:52.329Z,66.3
2018-06-04T22:13:52.573Z,67.5
2018-06-04T22:19:04.243Z,67.3
2018-06-04T22:24:03.978Z,68.2
2018-06-04T22:29:03.983Z,69.9
2018-06-04T22:34:04.394Z,68.4
2018-06-04T22:39:03.980Z,69
2018-06-04T22:44:04.129Z,71
2018-06-04T22:49:04.176Z,71.1
2018-06-04T22:54:04.216Z,70.3
2018-06-04T22:59:04.238Z,72.4
2018-06-04T23:04:16.249Z,71.1
2018-06-04T23:09:15.961Z,71.5
2018-06-04T23:14:16.121Z,72.7
2018-06-04T23:19:15.981Z,71.3
2018-06-04T23:24:15.983Z,70.7
2018-06-04T23:29:15.985Z,71.5
2018-06-04T23:34:16.153Z,72.3
2018-06-04T23:39:18.958Z,73
2018-06-04T23:44:18.904Z,74
2018-06-04T23:49:31.296Z,73.2
2018-06-04T23:54:31.024Z,72.4
2018-06-04T23:59:31.017Z,73.1
